Terminal Aerodrome Forecast
Issued by NWS Tampa Bay Area, FL

Home | Current Version | Previous Version | Text Only | Print | Product List | Glossary On
Versions: 1 2 3 4 5 6 7 8 9 10 11 12
000
FTUS42 KTBW 301700
TAFFMY
TAF
KFMY 301726Z 3018/3118 28006KT P6SM SCT035 SCT250
     FM302100 30010KT P6SM SCT035 SCT250
      TEMPO 3021/3024 BKN035
     FM310300 36008KT P6SM SCT250
     FM310600 03008KT P6SM SCT250=

USA.gov is the U.S. government's official web portal to all federal, state and local government web resources and services.